Time;durP1;ratioP1;P1;durP2;ratioP2;P2;SDS_P1;SDS_P2;PMS_P1;PMS_P2;Temp;Humidity;BMP_temperature;BMP_pressure;BME280_temperature;BME280_humidity;BME280_pressure;Samples;Min_cycle;Max_cycle;Signal;HPM_P1;HPM_P2
2022/08/03 00:01:04;;;;;;;;;;;;;;;19.98;100.00;101473.91;5035120;28;19925;-56
2022/08/03 00:03:29;;;;;;;;;;;;;;;19.96;100.00;101477.69;5043485;28;19916;-58
2022/08/03 00:05:54;;;;;;;;;;;;;;;19.94;100.00;101475.13;5053521;28;20369;-56
2022/08/03 00:08:20;;;;;;;;;;;;;;;19.93;100.00;101476.06;5054816;28;19921;-57
2022/08/03 00:10:45;;;;;;;;;;;;;;;19.91;100.00;101477.16;5055015;28;20268;-58
2022/08/03 00:13:12;;;;;;;;;;;;;;;19.90;100.00;101472.78;5054544;28;19924;-56
2022/08/03 00:15:38;;;;;;;;;;;;;;;19.88;100.00;101472.03;5052323;28;20288;-56
2022/08/03 00:18:03;;;;;;;;;;;;;;;19.86;100.00;101463.22;5054686;28;19921;-57
2022/08/03 00:20:28;;;;;;;;;;;;;;;19.83;100.00;101464.31;5054972;28;19925;-57
2022/08/03 00:22:54;;;;;;;;;;;;;;;19.80;100.00;101462.66;5054787;28;19923;-57
2022/08/03 00:25:19;;;;;;;;;;;;;;;19.78;100.00;101467.31;5051891;28;20011;-58
2022/08/03 00:27:44;;;;;;;;;;;;;;;19.77;100.00;101464.72;5034746;28;19913;-57
2022/08/03 00:30:10;;;;;;;;;;;;;;;19.75;100.00;101462.16;5034878;28;19944;-56
2022/08/03 00:32:35;;;;;;;;;;;;;;;19.73;100.00;101456.06;5034581;28;19979;-57
2022/08/03 00:35:00;;;;;;;;;;;;;;;19.73;100.00;101460.53;5042521;28;20435;-58
2022/08/03 00:37:26;;;;;;;;;;;;;;;19.71;100.00;101460.66;5020717;28;19937;-58
2022/08/03 00:39:51;;;;;;;;;;;;;;;19.71;100.00;101457.13;5016900;28;19925;-58
2022/08/03 00:42:16;;;;;;;;;;;;;;;19.71;100.00;101463.34;5034277;28;20396;-58
2022/08/03 00:44:42;;;;;;;;;;;;;;;19.69;100.00;101454.53;5035080;28;20426;-57
2022/08/03 00:47:09;;;;;;;;;;;;;;;19.67;100.00;101455.63;5035503;28;20357;-57
2022/08/03 00:49:34;;;;;;;;;;;;;;;19.65;100.00;101456.63;5054397;28;19917;-57
2022/08/03 00:52:00;;;;;;;;;;;;;;;19.61;100.00;101460.47;5054217;28;19961;-55
2022/08/03 00:54:26;;;;;;;;;;;;;;;19.60;100.00;101452.53;5054539;28;20387;-55
2022/08/03 00:56:51;;;;;;;;;;;;;;;19.62;100.00;101450.59;5048034;28;20369;-55
2022/08/03 00:59:17;;;;;;;;;;;;;;;19.62;100.00;101450.59;5031430;28;19929;-56
2022/08/03 01:01:42;;;;;;;;;;;;;;;19.61;100.00;101451.56;5033251;28;19917;-56
2022/08/03 01:04:07;;;;;;;;;;;;;;;19.60;100.00;101442.66;5033784;28;19923;-57
2022/08/03 01:06:34;;;;;;;;;;;;;;;19.58;100.00;101443.75;5041020;28;19928;-55
2022/08/03 01:09:19;;;;;;;;;;;;;;;19.56;100.00;101438.47;5035140;28;19924;-57
2022/08/03 01:11:47;;;;;;;;;;;;;;;19.53;100.00;101441.38;5033923;28;20274;-57
2022/08/03 01:14:17;;;;;;;;;;;;;;;19.51;100.00;101432.56;5033649;28;19960;-57
2022/08/03 01:17:00;;;;;;;;;;;;;;;19.49;100.00;101437.22;5038039;28;20280;-57
2022/08/03 01:19:44;;;;;;;;;;;;;;;19.47;100.00;101439.16;5035163;28;20308;-57
2022/08/03 01:22:22;;;;;;;;;;;;;;;19.44;100.00;101437.53;5033229;28;19913;-56
2022/08/03 01:24:47;;;;;;;;;;;;;;;19.40;100.00;101432.50;5033497;28;19920;-57
2022/08/03 01:27:20;;;;;;;;;;;;;;;19.37;100.00;101430.91;5037585;28;19921;-57
2022/08/03 01:30:00;;;;;;;;;;;;;;;19.36;100.00;101429.22;5052901;28;19917;-56
2022/08/03 01:32:38;;;;;;;;;;;;;;;19.30;100.00;101435.84;5053770;28;20341;-56
2022/08/03 01:35:07;;;;;;;;;;;;;;;19.29;100.00;101435.97;5052893;28;20088;-55
2022/08/03 01:37:38;;;;;;;;;;;;;;;19.28;100.00;101439.63;5052855;28;19956;-57
2022/08/03 01:40:04;;;;;;;;;;;;;;;19.27;100.00;101441.47;5051556;28;20514;-56
2022/08/03 01:42:31;;;;;;;;;;;;;;;19.23;100.00;101431.88;5052185;28;19921;-55
2022/08/03 01:44:57;;;;;;;;;;;;;;;19.20;100.00;101442.03;5051791;28;19913;-57
2022/08/03 01:47:23;;;;;;;;;;;;;;;19.15;100.00;101437.81;5052487;28;19939;-57
2022/08/03 01:49:49;;;;;;;;;;;;;;;19.12;100.00;101438.03;5039223;28;20329;-57
2022/08/03 01:52:17;;;;;;;;;;;;;;;19.10;100.00;101436.44;5033264;28;19924;-57
2022/08/03 01:54:44;;;;;;;;;;;;;;;19.06;100.00;101430.44;5014518;28;19967;-57
2022/08/03 01:57:09;;;;;;;;;;;;;;;19.05;100.00;101434.06;5039349;28;19967;-58
2022/08/03 01:59:35;;;;;;;;;;;;;;;19.04;100.00;101418.09;5052041;28;19951;-56
2022/08/03 02:02:01;;;;;;;;;;;;;;;19.02;100.00;101425.41;5052600;28;19921;-57
2022/08/03 02:04:28;;;;;;;;;;;;;;;19.01;100.00;101423.69;5051438;28;20368;-57
2022/08/03 02:06:53;;;;;;;;;;;;;;;18.99;100.00;101431.84;5052554;28;19924;-57
2022/08/03 02:09:20;;;;;;;;;;;;;;;18.98;100.00;101430.13;5048277;28;20000;-56
2022/08/03 02:11:45;;;;;;;;;;;;;;;18.93;100.00;101419.72;5031756;28;20004;-55
2022/08/03 02:14:13;;;;;;;;;;;;;;;18.93;100.00;101418.88;5014900;28;20345;-55
2022/08/03 02:16:38;;;;;;;;;;;;;;;18.92;100.00;101419.81;5032905;28;20372;-58
2022/08/03 02:19:05;;;;;;;;;;;;;;;18.93;100.00;101426.91;5032614;28;19952;-58
2022/08/03 02:21:32;;;;;;;;;;;;;;;18.91;100.00;101418.09;5049242;28;20004;-57
2022/08/03 02:23:58;;;;;;;;;;;;;;;18.88;100.00;101412.94;5052443;28;20426;-57
2022/08/03 02:26:25;;;;;;;;;;;;;;;18.87;100.00;101424.63;5034628;28;19917;-57
2022/08/03 02:28:51;;;;;;;;;;;;;;;18.88;100.00;101418.31;5052332;28;20455;-57
2022/08/03 02:31:18;;;;;;;;;;;;;;;18.88;100.00;101418.31;5051152;28;20007;-58
2022/08/03 02:33:52;;;;;;;;;;;;;;;18.87;100.00;101412.06;5033892;28;19938;-58
2022/08/03 02:36:22;;;;;;;;;;;;;;;18.86;100.00;101415.69;5052205;28;19913;-56
2022/08/03 02:38:50;;;;;;;;;;;;;;;18.86;100.00;101413.03;5051619;28;19967;-57
2022/08/03 02:41:17;;;;;;;;;;;;;;;18.83;100.00;101408.72;5050896;28;19972;-56
2022/08/03 02:43:44;;;;;;;;;;;;;;;18.84;100.00;101406.91;5034133;28;19917;-56
2022/08/03 02:46:12;;;;;;;;;;;;;;;18.85;100.00;101405.97;5052414;28;19936;-56
2022/08/03 02:48:40;;;;;;;;;;;;;;;18.88;100.00;101410.25;5034282;28;19913;-57
2022/08/03 02:51:05;;;;;;;;;;;;;;;18.90;100.00;101394.91;5049252;28;19917;-58
2022/08/03 02:53:31;;;;;;;;;;;;;;;18.89;100.00;101402.09;5034144;28;19920;-58
2022/08/03 02:55:58;;;;;;;;;;;;;;;18.89;100.00;101391.34;5052314;28;19920;-57
2022/08/03 02:58:23;;;;;;;;;;;;;;;18.91;100.00;101391.28;5051902;28;19924;-58
2022/08/03 03:00:50;;;;;;;;;;;;;;;18.93;100.00;101398.25;5051942;28;20410;-57
2022/08/03 03:03:16;;;;;;;;;;;;;;;18.93;100.00;101397.41;5049881;28;20384;-57
2022/08/03 03:05:42;;;;;;;;;;;;;;;18.92;100.00;101388.47;5033950;28;19927;-57
2022/08/03 03:08:08;;;;;;;;;;;;;;;18.89;100.00;101391.34;5033989;28;19919;-57
2022/08/03 03:10:34;;;;;;;;;;;;;;;18.85;100.00;101389.88;5051944;28;19912;-57
2022/08/03 03:12:59;;;;;;;;;;;;;;;18.85;100.00;101381.81;5049646;28;20371;-57
2022/08/03 03:15:25;;;;;;;;;;;;;;;18.86;100.00;101382.66;5051990;28;19982;-56
2022/08/03 03:17:52;;;;;;;;;;;;;;;18.82;100.00;101382.88;5034111;28;19921;-56
2022/08/03 03:20:19;;;;;;;;;;;;;;;18.80;100.00;101397.38;5051758;28;19917;-56
2022/08/03 03:22:46;;;;;;;;;;;;;;;18.75;100.00;101389.66;5049916;28;19942;-55
2022/08/03 03:25:12;;;;;;;;;;;;;;;18.75;100.00;101391.50;5051573;28;19921;-57
2022/08/03 03:27:38;;;;;;;;;;;;;;;18.71;100.00;101389.97;5051869;28;19939;-58
2022/08/03 03:30:03;;;;;;;;;;;;;;;18.67;100.00;101395.56;5051770;28;19960;-55
2022/08/03 03:32:29;;;;;;;;;;;;;;;18.61;100.00;101387.09;5049279;28;20397;-56
2022/08/03 03:34:54;;;;;;;;;;;;;;;18.56;100.00;101391.91;5047940;28;19924;-55
2022/08/03 03:37:20;;;;;;;;;;;;;;;18.51;100.00;101398.44;5051627;28;19916;-57
2022/08/03 03:39:45;;;;;;;;;;;;;;;18.45;100.00;101398.00;5051677;28;19924;-58
2022/08/03 03:42:10;;;;;;;;;;;;;;;18.42;100.00;101392.88;5033713;28;19912;-58
2022/08/03 03:44:36;;;;;;;;;;;;;;;18.37;100.00;101395.88;5048240;28;19921;-56
2022/08/03 03:47:01;;;;;;;;;;;;;;;18.34;100.00;101401.44;5051651;28;19964;-57
2022/08/03 03:49:26;;;;;;;;;;;;;;;18.31;100.00;101393.59;5044899;28;19928;-58
2022/08/03 03:51:55;;;;;;;;;;;;;;;18.30;100.00;101398.13;5035444;28;20402;-56
2022/08/03 03:54:20;;;;;;;;;;;;;;;18.32;100.00;101412.25;5033614;28;20011;-56
2022/08/03 03:56:46;;;;;;;;;;;;;;;18.37;100.00;101406.59;5055174;28;20007;-57
2022/08/03 03:59:11;;;;;;;;;;;;;;;18.39;100.00;101403.78;5055456;28;19947;-56
2022/08/03 04:01:37;;;;;;;;;;;;;;;18.41;100.00;101401.88;5055331;28;19916;-57
2022/08/03 04:10:57;;;;;;;;;;;;;;;18.44;100.00;101398.97;5054412;28;19972;-55
2022/08/03 04:12:18;;;;;;;;;;;;;;;18.53;100.00;101398.34;5055239;28;19986;-57
2022/08/03 04:14:45;;;;;;;;;;;;;;;18.52;100.00;101404.69;5052931;28;19920;-55
2022/08/03 04:17:11;;;;;;;;;;;;;;;18.51;100.00;101406.47;5036528;28;19966;-57
2022/08/03 04:19:39;;;;;;;;;;;;;;;18.51;100.00;101398.44;5054845;28;19917;-57
2022/08/03 04:22:06;;;;;;;;;;;;;;;18.50;100.00;101410.16;5054855;28;19994;-58
2022/08/03 04:24:38;;;;;;;;;;;;;;;18.51;100.00;101408.31;5052320;28;20388;-58
2022/08/03 04:27:06;;;;;;;;;;;;;;;18.53;100.00;101408.22;5034893;28;19928;-57
2022/08/03 04:29:33;;;;;;;;;;;;;;;18.50;100.00;101410.16;5034314;28;20328;-57
2022/08/03 04:31:59;;;;;;;;;;;;;;;18.51;100.00;101408.31;5034771;28;19913;-57
2022/08/03 04:34:24;;;;;;;;;;;;;;;18.52;100.00;101410.03;5050534;28;19925;-57
2022/08/03 04:36:56;;;;;;;;;;;;;;;18.55;100.00;101407.13;5054493;28;19960;-58
2022/08/03 04:39:26;;;;;;;;;;;;;;;18.56;100.00;101416.06;5054388;28;19970;-58
2022/08/03 04:41:55;;;;;;;;;;;;;;;18.56;100.00;101416.06;5054411;28;19917;-57
2022/08/03 04:44:22;;;;;;;;;;;;;;;18.58;100.00;101414.09;5052126;28;19924;-58
2022/08/03 04:46:48;;;;;;;;;;;;;;;18.58;100.00;101408.75;5054421;28;19943;-57
2022/08/03 04:49:13;;;;;;;;;;;;;;;18.62;100.00;101415.59;5054011;28;19968;-57
2022/08/03 04:51:39;;;;;;;;;;;;;;;18.65;100.00;101418.09;5054179;28;19959;-58
2022/08/03 04:54:06;;;;;;;;;;;;;;;18.66;100.00;101412.63;5045746;28;20273;-57
2022/08/03 04:56:33;;;;;;;;;;;;;;;18.65;100.00;101423.47;5053253;28;20471;-56
2022/08/03 04:58:58;;;;;;;;;;;;;;;18.65;100.00;101418.94;5034232;28;19925;-57
2022/08/03 05:01:23;;;;;;;;;;;;;;;18.63;100.00;101420.88;5016596;28;20357;-58
2022/08/03 05:03:49;;;;;;;;;;;;;;;18.67;100.00;101417.03;5033195;28;19993;-58
2022/08/03 05:06:14;;;;;;;;;;;;;;;18.71;100.00;101424.84;5039823;28;20012;-56
2022/08/03 05:08:39;;;;;;;;;;;;;;;18.82;100.00;101430.31;5046368;28;19916;-56
2022/08/03 05:11:05;;;;;;;;;;;;;;;18.93;100.00;101443.03;5053437;28;19924;-58
2022/08/03 05:13:30;;;;;;;;;;;;;;;19.04;100.00;101445.81;5019295;28;19921;-57
2022/08/03 05:15:55;;;;;;;;;;;;;;;19.12;100.00;101446.09;5042470;28;20428;-57
2022/08/03 05:18:20;;;;;;;;;;;;;;;19.17;100.00;101437.72;5035763;28;19920;-57
2022/08/03 05:20:46;;;;;;;;;;;;;;;19.23;100.00;101447.16;5035728;28;20011;-56
2022/08/03 05:23:11;;;;;;;;;;;;;;;19.24;100.00;101449.72;5052885;28;19917;-58
2022/08/03 05:25:36;;;;;;;;;;;;;;;19.34;100.00;101443.72;5046990;28;19921;-56
2022/08/03 05:28:01;;;;;;;;;;;;;;;19.44;100.00;101444.75;5051431;28;20339;-58
2022/08/03 05:30:27;;;;;;;;;;;;;;;19.53;100.00;101451.25;5036001;28;19921;-58
2022/08/03 05:32:52;;;;;;;;;;;;;;;19.58;100.00;101447.28;5033622;28;19917;-57
2022/08/03 05:35:17;;;;;;;;;;;;;;;19.65;100.00;101443.19;5033621;28;19925;-57
2022/08/03 05:37:43;;;;;;;;;;;;;;;19.70;100.00;101450.88;5045313;28;19925;-57
2022/08/03 05:40:08;;;;;;;;;;;;;;;19.69;100.00;101443.78;5053163;28;20362;-57
2022/08/03 05:42:35;;;;;;;;;;;;;;;19.76;100.00;101449.59;5051885;28;19925;-57
2022/08/03 05:45:11;;;;;;;;;;;;;;;19.84;100.00;101446.38;5051550;28;20023;-56
2022/08/03 05:47:36;;;;;;;;;;;;;;;19.86;100.00;101450.66;5040498;28;19917;-57
2022/08/03 05:50:02;;;;;;;;;;;;;;;19.92;100.00;101447.50;5035155;28;19917;-57
2022/08/03 05:52:27;;;;;;;;;;;;;;;19.87;100.00;101446.97;5053177;28;19924;-56
2022/08/03 05:54:52;;;;;;;;;;;;;;;19.92;100.00;101455.56;5034793;28;19971;-57
2022/08/03 05:57:17;;;;;;;;;;;;;;;19.92;100.00;101452.00;5036322;28;19932;-57
2022/08/03 05:59:43;;;;;;;;;;;;;;;20.00;100.00;101455.00;5052780;28;19924;-57
2022/08/03 06:02:08;;;;;;;;;;;;;;;20.03;100.00;101444.00;5032303;28;19917;-57
2022/08/03 06:04:33;;;;;;;;;;;;;;;20.01;100.00;101445.09;5048126;28;20166;-57
2022/08/03 06:06:58;;;;;;;;;;;;;;;20.03;100.00;101443.16;5049519;28;19917;-57
2022/08/03 06:09:24;;;;;;;;;;;;;;;20.02;100.00;101444.97;5033410;28;19921;-57
2022/08/03 06:11:49;;;;;;;;;;;;;;;20.07;100.00;101445.47;5034412;28;19928;-57
2022/08/03 06:14:14;;;;;;;;;;;;;;;20.10;100.00;101447.06;5030199;28;19947;-59
2022/08/03 06:16:39;;;;;;;;;;;;;;;20.06;100.00;101445.59;5051120;28;19920;-57
2022/08/03 06:19:05;;;;;;;;;;;;;;;20.02;100.00;101449.50;5052175;28;19931;-56
2022/08/03 06:21:30;;;;;;;;;;;;;;;20.05;100.00;101449.25;5034274;28;20372;-57
2022/08/03 06:23:55;;;;;;;;;;;;;;;20.14;100.00;101446.75;5052025;28;19917;-58
2022/08/03 06:26:21;;;;;;;;;;;;;;;20.13;100.00;101442.31;5033912;28;20334;-56
2022/08/03 06:28:48;;;;;;;;;;;;;;;20.16;100.00;101440.41;5040775;28;20284;-58
2022/08/03 06:31:13;;;;;;;;;;;;;;;20.23;100.00;101447.88;5047277;28;19921;-58
2022/08/03 06:33:39;;;;;;;;;;;;;;;20.30;100.00;101453.63;5033702;28;19921;-58
2022/08/03 06:36:04;;;;;;;;;;;;;;;20.35;100.00;101446.06;5051840;28;19966;-59
2022/08/03 06:38:30;;;;;;;;;;;;;;;20.35;100.00;101450.59;5050891;28;19925;-58
2022/08/03 06:40:55;;;;;;;;;;;;;;;20.43;100.00;101453.53;5051341;28;19975;-58
2022/08/03 06:43:20;;;;;;;;;;;;;;;20.38;100.00;101461.97;5051804;28;20008;-58
2022/08/03 06:45:45;;;;;;;;;;;;;;;20.47;100.00;101463.09;5049978;28;19921;-58
2022/08/03 06:48:11;;;;;;;;;;;;;;;20.52;100.00;101468.97;5051194;28;19916;-59
2022/08/03 06:50:38;;;;;;;;;;;;;;;20.48;100.00;101461.28;5051754;28;20273;-57
2022/08/03 06:53:03;;;;;;;;;;;;;;;20.61;100.00;101467.41;5051472;28;20383;-57
2022/08/03 06:55:29;;;;;;;;;;;;;;;20.79;100.00;101462.44;5051592;28;19923;-57
2022/08/03 06:57:54;;;;;;;;;;;;;;;20.74;100.00;101468.22;5051809;28;19929;-57
2022/08/03 07:00:19;;;;;;;;;;;;;;;20.91;100.00;101461.50;5032096;28;19924;-57
2022/08/03 07:02:44;;;;;;;;;;;;;;;20.96;100.00;101461.16;5052140;28;19916;-57
2022/08/03 07:05:10;;;;;;;;;;;;;;;21.10;100.00;101466.28;5035635;28;19925;-56
2022/08/03 07:07:35;;;;;;;;;;;;;;;21.08;100.00;101464.69;5051104;28;19916;-58
2022/08/03 07:10:01;;;;;;;;;;;;;;;20.97;100.00;101468.22;5051734;28;19944;-56
2022/08/03 07:12:27;;;;;;;;;;;;;;;21.03;100.00;101472.28;5028685;28;19917;-56
2022/08/03 07:14:52;;;;;;;;;;;;;;;21.15;100.00;101474.00;5049998;28;19968;-57
2022/08/03 07:17:18;;;;;;;;;;;;;;;21.23;100.00;101476.06;5046094;28;19993;-57
2022/08/03 07:19:43;;;;;;;;;;;;;;;21.16;100.00;101475.69;5033782;28;19920;-56
2022/08/03 07:22:09;;;;;;;;;;;;;;;21.40;100.00;101488.19;5033356;28;20364;-56
2022/08/03 07:24:35;;;;;;;;;;;;;;;21.37;100.00;101497.38;5050965;28;19917;-59
2022/08/03 07:27:00;;;;;;;;;;;;;;;21.48;100.00;101492.94;5054814;28;19917;-56
2022/08/03 07:29:25;;;;;;;;;;;;;;;21.46;100.00;101493.09;5055340;28;19923;-57
2022/08/03 07:31:50;;;;;;;;;;;;;;;21.72;100.00;101503.59;5023986;28;19924;-57
2022/08/03 07:34:16;;;;;;;;;;;;;;;21.83;100.00;101498.19;5038372;28;19924;-57
2022/08/03 07:36:41;;;;;;;;;;;;;;;21.84;100.00;101504.44;5051296;28;19916;-57
2022/08/03 07:39:06;;;;;;;;;;;;;;;21.86;100.00;101500.63;5050755;28;19947;-57
2022/08/03 07:41:32;;;;;;;;;;;;;;;21.84;100.00;101491.81;5032124;28;19924;-56
2022/08/03 07:43:57;;;;;;;;;;;;;;;21.85;100.00;101509.69;5053909;28;19913;-57
2022/08/03 07:46:22;;;;;;;;;;;;;;;21.75;100.00;101506.91;5054297;28;19916;-57
2022/08/03 07:48:48;;;;;;;;;;;;;;;21.89;100.00;101500.38;5036938;28;20017;-57
2022/08/03 07:51:13;;;;;;;;;;;;;;;21.87;100.00;101505.03;5035757;28;20141;-57
2022/08/03 07:53:38;;;;;;;;;;;;;;;21.98;100.00;101508.69;5054647;28;20392;-57
2022/08/03 07:56:03;;;;;;;;;;;;;;;22.12;100.00;101510.25;5054569;28;19935;-57
2022/08/03 07:58:29;;;;;;;;;;;;;;;22.21;100.00;101509.47;5048660;28;19932;-57
2022/08/03 08:00:54;;;;;;;;;;;;;;;22.46;100.00;101510.97;5052155;28;20360;-57
2022/08/03 08:03:20;;;;;;;;;;;;;;;22.84;100.00;101517.66;5024923;28;20369;-56
2022/08/03 08:05:46;;;;;;;;;;;;;;;22.95;100.00;101518.56;5049222;28;19927;-57
2022/08/03 08:08:11;;;;;;;;;;;;;;;23.17;100.00;101522.97;5052782;28;19920;-57
2022/08/03 08:10:36;;;;;;;;;;;;;;;23.29;100.00;101512.91;5034772;28;20364;-58
2022/08/03 08:13:02;;;;;;;;;;;;;;;23.40;100.00;101510.09;5051518;28;19952;-56
2022/08/03 08:15:28;;;;;;;;;;;;;;;23.16;100.00;101516.72;5053985;28;19923;-56
2022/08/03 08:17:54;;;;;;;;;;;;;;;22.89;100.00;101517.22;5054309;28;20015;-57
2022/08/03 08:20:21;;;;;;;;;;;;;;;22.67;100.00;101512.84;5054219;28;19917;-57
2022/08/03 08:22:47;;;;;;;;;;;;;;;22.77;100.00;101512.91;5051613;28;19923;-58
2022/08/03 08:25:12;;;;;;;;;;;;;;;22.71;100.00;101508.88;5047130;28;19924;-57
2022/08/03 08:27:48;;;;;;;;;;;;;;;22.54;100.00;101504.94;5048246;28;19960;-57
2022/08/03 08:30:14;;;;;;;;;;;;;;;22.53;100.00;101511.31;5040379;28;20026;-57
2022/08/03 08:32:40;;;;;;;;;;;;;;;22.66;100.00;101512.00;5049548;28;19959;-57
2022/08/03 08:35:05;;;;;;;;;;;;;;;22.81;100.00;101506.25;5040391;28;19944;-57
2022/08/03 08:37:31;;;;;;;;;;;;;;;23.01;100.00;101499.97;5046194;28;19917;-57
2022/08/03 08:39:56;;;;;;;;;;;;;;;22.94;100.00;101511.44;5028430;28;20285;-59
2022/08/03 08:42:21;;;;;;;;;;;;;;;23.00;100.00;101506.34;5052865;28;20425;-58
2022/08/03 08:44:47;;;;;;;;;;;;;;;23.21;100.00;101505.47;5045383;28;20277;-57
2022/08/03 08:47:13;;;;;;;;;;;;;;;23.35;100.00;101501.56;5048902;28;19916;-56
2022/08/03 08:49:39;;;;;;;;;;;;;;;23.42;100.00;101504.59;5050515;28;19921;-56
2022/08/03 08:52:04;;;;;;;;;;;;;;;23.44;100.00;101497.19;5045744;28;19921;-57
2022/08/03 08:54:31;;;;;;;;;;;;;;;23.64;100.00;101501.66;5045600;28;20010;-57
2022/08/03 08:57:00;;;;;;;;;;;;;;;24.33;97.44;101510.72;5052988;28;19947;-57
2022/08/03 08:59:26;;;;;;;;;;;;;;;25.78;89.30;101517.75;5033030;28;20380;-57
2022/08/03 09:01:55;;;;;;;;;;;;;;;26.85;81.58;101508.91;5031361;28;19921;-57
2022/08/03 09:04:21;;;;;;;;;;;;;;;27.34;80.51;101538.22;5050365;28;19971;-58
2022/08/03 09:06:46;;;;;;;;;;;;;;;28.06;75.03;101524.25;5026182;28;19968;-57
2022/08/03 09:09:11;;;;;;;;;;;;;;;28.36;73.48;101522.72;5034289;28;20015;-58
2022/08/03 09:11:36;;;;;;;;;;;;;;;28.08;75.26;101528.50;5052086;28;19939;-58
2022/08/03 09:14:02;;;;;;;;;;;;;;;28.43;73.27;101529.22;5048474;28;20292;-58
2022/08/03 09:16:27;;;;;;;;;;;;;;;28.41;72.54;101535.84;5052448;28;20300;-58
2022/08/03 09:18:53;;;;;;;;;;;;;;;28.50;71.24;101537.53;5035252;28;20303;-58
2022/08/03 09:21:18;;;;;;;;;;;;;;;28.40;70.98;101545.91;5038681;28;19932;-58
2022/08/03 09:23:47;;;;;;;;;;;;;;;28.97;69.48;101535.16;5052545;28;19916;-58
2022/08/03 09:26:18;;;;;;;;;;;;;;;29.30;69.07;101532.34;5050857;28;19917;-58
2022/08/03 09:28:44;;;;;;;;;;;;;;;29.54;66.41;101517.75;5029859;28;19916;-58
2022/08/03 09:31:09;;;;;;;;;;;;;;;29.03;68.11;101538.03;5050491;28;19921;-58
2022/08/03 09:33:45;;;;;;;;;;;;;;;29.00;68.45;101541.09;5019729;28;19928;-58
2022/08/03 09:36:30;;;;;;;;;;;;;;;29.26;67.35;101540.03;5052191;28;19960;-53
2022/08/03 09:39:06;;;;;;;;;;;;;;;29.62;65.24;101531.38;5046130;28;20339;-51
2022/08/03 09:41:32;;;;;;;;;;;;;;;29.87;63.18;101521.19;5048917;28;20352;-53
2022/08/03 09:43:57;;;;;;;;;;;;;;;30.07;62.68;101527.03;5032878;28;19917;-53
2022/08/03 09:46:23;;;;;;;;;;;;;;;29.99;61.69;101534.44;5050849;28;19927;-59
2022/08/03 09:48:48;;;;;;;;;;;;;;;29.98;61.35;101522.66;5046081;28;19928;-57
2022/08/03 09:51:17;;;;;;;;;;;;;;;29.94;62.94;101521.34;5039001;28;19952;-57
2022/08/03 09:53:45;;;;;;;;;;;;;;;30.28;61.14;101528.25;5051536;28;19924;-57
2022/08/03 09:56:10;;;;;;;;;;;;;;;30.53;59.20;101541.75;5034599;28;19971;-57
2022/08/03 09:58:43;;;;;;;;;;;;;;;30.55;58.24;101535.06;5046451;28;19925;-57
2022/08/03 10:01:09;;;;;;;;;;;;;;;30.24;60.03;101533.25;5040032;28;20424;-58
2022/08/03 10:03:35;;;;;;;;;;;;;;;30.34;59.45;101530.25;5045944;28;20062;-58
2022/08/03 10:06:18;;;;;;;;;;;;;;;30.03;59.82;101535.78;5048088;28;20266;-57
2022/08/03 10:08:43;;;;;;;;;;;;;;;30.65;59.18;101532.06;5042492;28;20000;-58
2022/08/03 10:11:08;;;;;;;;;;;;;;;31.08;57.37;101527.94;5047551;28;20292;-58
2022/08/03 10:13:35;;;;;;;;;;;;;;;31.08;56.09;101527.94;5046434;28;19971;-58
2022/08/03 10:16:00;;;;;;;;;;;;;;;30.81;57.11;101527.50;5050501;28;19916;-57
2022/08/03 10:18:25;;;;;;;;;;;;;;;30.97;55.80;101519.09;5051065;28;19931;-58
2022/08/03 10:20:52;;;;;;;;;;;;;;;31.16;55.38;101531.38;5046866;28;19983;-58
2022/08/03 10:23:18;;;;;;;;;;;;;;;30.30;58.00;101525.34;5048155;28;19928;-58
2022/08/03 10:25:46;;;;;;;;;;;;;;;30.91;54.28;101528.06;5016050;28;20288;-58
2022/08/03 10:28:13;;;;;;;;;;;;;;;30.95;55.08;101525.78;5048681;28;20414;-58
2022/08/03 10:30:43;;;;;;;;;;;;;;;30.89;53.43;101525.50;5047990;28;19947;-58
2022/08/03 10:33:13;;;;;;;;;;;;;;;30.83;55.72;101526.28;5050058;28;19978;-58
2022/08/03 10:35:40;;;;;;;;;;;;;;;30.80;55.33;101534.81;5051652;28;19925;-58
2022/08/03 10:38:08;;;;;;;;;;;;;;;30.78;54.66;101525.97;5049825;28;19925;-58
2022/08/03 10:40:35;;;;;;;;;;;;;;;31.19;53.66;101522.81;5048984;28;20392;-58
2022/08/03 10:43:09;;;;;;;;;;;;;;;31.27;52.94;101516.41;5047702;28;20015;-58
2022/08/03 10:45:39;;;;;;;;;;;;;;;31.23;51.29;101526.03;5043429;28;19917;-58
2022/08/03 10:48:05;;;;;;;;;;;;;;;31.27;51.88;101519.13;5049318;28;19921;-57
2022/08/03 10:50:31;;;;;;;;;;;;;;;31.47;51.37;101518.53;5049852;28;20019;-58
2022/08/03 10:52:56;;;;;;;;;;;;;;;31.61;48.66;101512.19;5050748;28;19916;-58
2022/08/03 10:58:39;;;;;;;;;;;;;;;31.69;50.01;101527.69;5050880;28;19932;-58
2022/08/03 11:01:06;;;;;;;;;;;;;;;32.05;50.56;101523.22;5038426;28;20015;-58
2022/08/03 11:03:31;;;;;;;;;;;;;;;32.16;47.56;101522.69;5044352;28;19922;-58
2022/08/03 11:06:17;;;;;;;;;;;;;;;31.84;51.20;101511.22;5028931;28;19935;-58
2022/08/03 11:08:43;;;;;;;;;;;;;;;31.90;48.59;101510.44;5044231;28;20062;-58
2022/08/03 11:11:18;;;;;;;;;;;;;;;31.48;52.42;101501.91;5029231;28;20451;-57
2022/08/03 11:14:02;;;;;;;;;;;;;;;31.58;47.38;101504.38;5049863;28;19940;-58
2022/08/03 11:16:28;;;;;;;;;;;;;;;31.26;49.96;101508.38;5048340;28;20004;-58
2022/08/03 11:18:59;;;;;;;;;;;;;;;31.52;49.51;101500.53;5015636;28;19964;-58
2022/08/03 11:21:43;;;;;;;;;;;;;;;31.88;46.86;101508.94;5048670;28;20019;-58
2022/08/03 11:24:08;;;;;;;;;;;;;;;31.33;48.30;101512.91;5042050;28;20315;-58
2022/08/03 11:26:33;;;;;;;;;;;;;;;31.44;48.10;101510.72;5016071;28;19941;-58
2022/08/03 11:29:17;;;;;;;;;;;;;;;31.51;46.77;101508.91;5038652;28;19923;-58
2022/08/03 11:31:43;;;;;;;;;;;;;;;31.35;51.66;101508.06;5049988;28;19916;-57
2022/08/03 11:34:09;;;;;;;;;;;;;;;31.64;48.21;101513.72;5032625;28;19920;-58
2022/08/03 11:36:53;;;;;;;;;;;;;;;31.61;47.44;101498.50;5029468;28;19966;-57
2022/08/03 11:39:18;;;;;;;;;;;;;;;31.35;46.17;101512.72;5041140;28;20390;-58
2022/08/03 11:41:43;;;;;;;;;;;;;;;31.30;49.52;101496.03;5050531;28;20406;-58
2022/08/03 11:44:29;;;;;;;;;;;;;;;31.67;47.25;101505.13;5048305;28;20387;-58
2022/08/03 11:46:54;;;;;;;;;;;;;;;31.35;49.80;101507.25;5049837;28;20338;-55
2022/08/03 11:49:22;;;;;;;;;;;;;;;31.61;48.42;101505.88;5048159;28;20011;-57
2022/08/03 11:51:52;;;;;;;;;;;;;;;32.24;47.16;101503.44;5050696;28;19968;-58
2022/08/03 11:54:18;;;;;;;;;;;;;;;31.88;44.26;101495.25;5049217;28;19917;-58
2022/08/03 11:56:52;;;;;;;;;;;;;;;31.79;45.57;101497.25;5051213;28;19920;-57
2022/08/03 11:59:17;;;;;;;;;;;;;;;31.65;45.48;101501.72;5050845;28;19916;-58
2022/08/03 12:01:42;;;;;;;;;;;;;;;32.10;43.49;101493.34;5050869;28;19917;-57
2022/08/03 12:04:09;;;;;;;;;;;;;;;32.31;42.69;101504.31;5050212;28;20384;-57
2022/08/03 12:06:53;;;;;;;;;;;;;;;32.34;41.83;101506.69;5050170;28;19927;-57
2022/08/03 12:09:19;;;;;;;;;;;;;;;32.20;42.15;101507.59;5049971;28;20038;-57
2022/08/03 12:11:47;;;;;;;;;;;;;;;32.28;43.42;101495.66;5051300;28;20368;-58
2022/08/03 12:14:15;;;;;;;;;;;;;;;31.83;42.55;101506.78;5054227;28;20000;-58
2022/08/03 12:16:45;;;;;;;;;;;;;;;31.29;44.46;101500.63;5054122;28;20003;-58
2022/08/03 12:19:10;;;;;;;;;;;;;;;31.61;43.62;101500.38;5054449;28;19916;-58
2022/08/03 12:21:44;;;;;;;;;;;;;;;31.97;42.81;101481.25;5055278;28;19929;-58
2022/08/03 12:24:09;;;;;;;;;;;;;;;32.24;42.49;101495.22;5053683;28;19917;-58
2022/08/03 12:26:48;;;;;;;;;;;;;;;32.14;40.41;101497.41;5041440;28;20285;-58
2022/08/03 12:29:17;;;;;;;;;;;;;;;32.10;42.18;101494.22;5036102;28;19917;-58
2022/08/03 12:31:42;;;;;;;;;;;;;;;32.38;43.43;101498.94;5035780;28;20250;-57
2022/08/03 12:34:08;;;;;;;;;;;;;;;32.56;42.41;101481.13;5035915;28;19928;-58
2022/08/03 12:36:34;;;;;;;;;;;;;;;32.54;40.80;101489.53;5054196;28;20407;-58
2022/08/03 12:39:00;;;;;;;;;;;;;;;32.38;40.33;101500.81;5053743;28;19982;-58